Historyczne dane pomiarowe

Dodano dane terminowe – wersja testowa.

Dane z okresu 1951-2019

Wersja bazy: 1.34 [2019-03-16, lista zmian], aktualizacja planowana na 2019-04-15

Dane meteo z obszaru Polski uzyskane na podstawie danych udostępnionych przez Instytut Meteorologii i Gospodarki Wodnej – Państwowy Instytut Badawczy.

 

Wybierz Datę:    

       

TemperaturaWilgotnośćWiatrCiśnienieOpadyŚniegCzas trwania zjawisk
 Stacja t tx tn tng RH VA  wxwx mslp ppp RRR   cm mm wxwxwxwxwxwxwx
1956-11-09 -3.7 -0.4 -5.3 -5.6 74.3- 1.7 2.0---- 0.0-- 2---------
1956-11-08 -2.3 -0.9 -5.9-11.7 92.5- 5.3 0.7---- 0.0-- 6---------
1956-11-07 -0.7 2.6 -2.4 -3.6 84.5- 4.0 3.3---- 2.6-- 5---------
1956-11-06 1.0 3.2 -0.1 -3.1 77.3- 3.0 3.0---- 1.4------------
1956-11-05 2.5 7.4 0.6 0.4 86.8- 4.0 3.3---- 0.0------------
1956-11-04 1.1 3.4 -1.4 -4.6 73.5- 5.0 4.0---- 0.0------------
1956-11-03 1.5 4.2 -0.4 -1.1 80.8- 5.3 1.3---- 0.2------------
1956-11-02 1.3 5.0 -1.4 -0.3 82.3- 3.0 2.3---- 0.0------------
1956-11-01 0.8 1.7 -5.4 -5.1 88.8- 8.0 1.7---- 2.2------------
1956-10-31 -4.8 0.1 -8.4 -9.4 65.5- 0.7 3.3---- 0.0------------
1956-10-30 -3.6 0.1 -5.8 -1.6 81.3- 1.7 4.7---- 1.1------------
1956-10-29 0.8 5.5 -0.5 0.0 99.0- 8.0 6.0---- 0.4------------
1956-10-28 6.6 8.4 4.9 7.6 97.3- 8.0 7.3---- 9.9------------
1956-10-27 7.4 7.9 5.4 5.4 89.3- 8.0 8.3---- 3.6------------
1956-10-26 6.6 11.4 5.9 3.9 97.5- 8.0 0.7---- 3.9------------
1956-10-25 11.5 14.5 8.8 8.4 83.8- 6.0 4.7---- 0.0------------
1956-10-24 11.5 14.4 7.8 7.7 88.5- 7.3 3.0---- 0.0------------
1956-10-23 9.5 11.4 8.3 9.5 81.3- 8.0 3.7---- 0.0------------
1956-10-22 11.5 13.9 10.0 9.9 78.0- 6.3 2.7---- 0.0------------
1956-10-21 11.6 13.9 7.8 5.9 88.8- 7.3 3.3---- 0.0------------
1956-10-20 8.8 10.4 5.4 3.9 95.5- 8.0 2.0---- 1.0------------
1956-10-19 10.0 12.9 7.8 10.8 89.5- 7.0 3.7---- 1.1------------
1956-10-18 10.0 11.9 5.4 4.5 95.0- 8.0 4.7---- 0.0------------
1956-10-17 6.9 12.6 0.0 -3.2 77.5- 0.0 3.7---- 0.0------------
1956-10-16 4.3 12.3 1.1 -2.1 86.0- 4.7 0.7---- 0.0------------
1956-10-15 5.3 11.0 1.5 -0.3 89.3- 1.0 2.3---- 0.0------------
1956-10-14 6.5 11.1 4.4 2.9 78.0- 1.7 4.7---- 0.0------------
1956-10-13 10.3 11.9 7.8 7.9 74.0- 5.7 4.7---- 9.4------------
1956-10-12 9.7 11.1 8.9 8.4 82.3- 8.0 5.0---- 0.0------------
1956-10-11 8.7 10.4 5.4 4.9 86.5- 7.3 3.7---- 0.0------------
1956-10-10 6.1 10.3 -0.5 -4.8 75.8- 2.0 1.3---- 0.0------------
1956-10-09 5.0 9.9 2.5 0.9 93.8- 5.3 4.0---- 3.8------------
1956-10-08 5.4 8.4 3.0 0.4 88.5- 2.0 2.0---- 3.5------------
1956-10-07 6.1 8.4 4.9 5.9 91.0- 6.0 6.7---- 3.4------------
1956-10-06 6.3 7.6 3.0 2.9 96.3- 8.0 0.7---- 9.8------------
1956-10-05 6.6 9.1 4.7 4.4 96.8- 5.3 2.7---- 4.7------------
1956-10-04 9.2 13.3 4.4 0.9 94.3- 6.0 3.0---- 2.1------------
1956-10-03 13.0 15.3 11.7 10.6 94.8- 8.0 6.3---- 2.0------------
1956-10-02 14.9 22.8 9.7 9.4 88.3- 3.3 3.3---- 9.0------------
1956-10-01 12.5 19.4 6.4 2.6 96.5- 4.3 2.7---- 1.5------------
1956-09-30 11.8 18.3 8.8 6.9 84.5- 3.3 2.3---- 0.0------------
1956-09-29 14.1 18.4 11.4 12.3 81.0- 2.0 6.3---- 0.0------------
1956-09-28 14.9 18.2 11.2 8.6 83.8- 4.7 2.7---- 0.0------------
1956-09-27 15.7 21.4 9.7 4.9 81.8- 1.7 4.3---- 0.0------------
1956-09-26 14.4 21.8 7.3 0.9 71.0- 0.0 3.7---- 0.0------------
1956-09-25 10.5 17.9 2.2 -1.6 77.0- 0.0 3.3---- 0.0------------
1956-09-24 8.8 14.9 1.9 -1.6 57.5- 0.0 2.7---- 0.0------------
1956-09-23 9.5 15.8 4.9 1.5 73.3- 2.7 3.3---- 0.0------------
1956-09-22 11.3 17.6 5.1 -0.1 80.0- 1.7 3.0---- 0.0------------
1956-09-21 9.2 17.4 1.5 2.4 86.0- 0.3 0.7---- 0.0------------
1956-09-20 10.4 16.4 5.9 1.6 82.5- 4.7 1.3---- 0.0------------
1956-09-19 8.1 14.9 1.0 -1.6 85.5- 3.0 1.3---- 0.0------------
1956-09-18 9.1 14.1 5.9 3.6 87.3- 2.7 1.7---- 0.0------------
1956-09-17 8.9 14.4 5.4 1.4 84.3- 5.7 2.7---- 4.4------------
1956-09-16 10.3 15.1 5.9 1.4 85.0- 5.3 4.7---- 0.0------------
1956-09-15 10.9 16.5 6.4 3.4 74.0- 4.0 4.0---- 0.0------------
1956-09-14 9.9 15.3 4.0 3.6 88.0- 4.0 2.0---- 0.0------------
1956-09-13 8.4 13.6 5.4 4.9 91.3- 2.7 5.7---- 8.8------------
1956-09-12 11.0 13.9 9.5 6.3 97.5- 6.3 4.0---- 7.4------------
1956-09-11 13.3 18.3 10.7 7.9 90.3- 6.7 3.0---- 0.0------------
178.4 ms

 

Źródłem pochodzenia danych jest Instytut Meteorologii i Gospodarki Wodnej – Państwowy Instytut Badawczy. Dane Instytutu Meteorologii i Gospodarki Wodnej – Państwowego Instytutu Badawczego zostały przetworzone.

Dane źródłowe można odnaleźć na stronie https://dane.imgw.pl